sensor_id;sensor_type;location;lat;lon;timestamp;P1;durP1;ratioP1;P2;durP2;ratioP2
17763;SDS011;22245;52.832;13.816;2023-02-13T00:03:15;7.40;;;4.33;;
17763;SDS011;22245;52.832;13.816;2023-02-13T00:06:37;7.30;;;4.37;;
17763;SDS011;22245;52.832;13.816;2023-02-13T00:09:58;7.50;;;4.37;;
17763;SDS011;22245;52.832;13.816;2023-02-13T00:13:20;7.10;;;4.77;;
17763;SDS011;22245;52.832;13.816;2023-02-13T00:16:42;5.83;;;3.70;;
17763;SDS011;22245;52.832;13.816;2023-02-13T00:20:07;5.67;;;3.60;;
17763;SDS011;22245;52.832;13.816;2023-02-13T00:23:31;6.23;;;3.57;;
17763;SDS011;22245;52.832;13.816;2023-02-13T00:26:54;5.50;;;3.30;;
17763;SDS011;22245;52.832;13.816;2023-02-13T00:30:16;5.10;;;3.17;;
17763;SDS011;22245;52.832;13.816;2023-02-13T00:33:38;5.33;;;3.30;;
17763;SDS011;22245;52.832;13.816;2023-02-13T00:37:01;4.77;;;2.90;;
17763;SDS011;22245;52.832;13.816;2023-02-13T00:40:23;4.43;;;2.87;;
17763;SDS011;22245;52.832;13.816;2023-02-13T00:43:45;5.13;;;3.13;;
17763;SDS011;22245;52.832;13.816;2023-02-13T00:47:08;4.27;;;2.70;;
17763;SDS011;22245;52.832;13.816;2023-02-13T00:50:33;4.90;;;3.10;;
17763;SDS011;22245;52.832;13.816;2023-02-13T00:53:56;3.83;;;2.50;;
17763;SDS011;22245;52.832;13.816;2023-02-13T00:57:18;4.13;;;2.47;;
17763;SDS011;22245;52.832;13.816;2023-02-13T01:00:39;4.77;;;2.70;;
17763;SDS011;22245;52.832;13.816;2023-02-13T01:04:01;5.10;;;2.70;;
17763;SDS011;22245;52.832;13.816;2023-02-13T01:07:23;5.27;;;2.60;;
17763;SDS011;22245;52.832;13.816;2023-02-13T01:10:46;5.17;;;2.63;;
17763;SDS011;22245;52.832;13.816;2023-02-13T01:14:09;4.50;;;2.53;;
17763;SDS011;22245;52.832;13.816;2023-02-13T01:17:30;3.70;;;2.20;;
17763;SDS011;22245;52.832;13.816;2023-02-13T01:20:56;4.23;;;2.50;;
17763;SDS011;22245;52.832;13.816;2023-02-13T01:24:19;3.97;;;2.17;;
17763;SDS011;22245;52.832;13.816;2023-02-13T01:27:42;3.17;;;2.03;;
17763;SDS011;22245;52.832;13.816;2023-02-13T01:31:03;3.90;;;2.50;;
17763;SDS011;22245;52.832;13.816;2023-02-13T01:34:25;2.97;;;2.00;;
17763;SDS011;22245;52.832;13.816;2023-02-13T01:37:46;4.30;;;2.50;;
17763;SDS011;22245;52.832;13.816;2023-02-13T01:41:08;4.17;;;2.50;;
17763;SDS011;22245;52.832;13.816;2023-02-13T01:44:46;3.43;;;2.03;;
17763;SDS011;22245;52.832;13.816;2023-02-13T01:48:10;3.50;;;2.47;;
17763;SDS011;22245;52.832;13.816;2023-02-13T01:51:35;4.30;;;2.40;;
17763;SDS011;22245;52.832;13.816;2023-02-13T01:54:59;3.80;;;2.20;;
17763;SDS011;22245;52.832;13.816;2023-02-13T01:58:22;5.40;;;2.50;;
17763;SDS011;22245;52.832;13.816;2023-02-13T02:01:49;6.23;;;2.60;;
17763;SDS011;22245;52.832;13.816;2023-02-13T02:05:11;3.73;;;2.50;;
17763;SDS011;22245;52.832;13.816;2023-02-13T02:08:33;5.20;;;2.30;;
17763;SDS011;22245;52.832;13.816;2023-02-13T02:11:58;4.00;;;2.50;;
17763;SDS011;22245;52.832;13.816;2023-02-13T02:15:27;3.67;;;2.27;;
17763;SDS011;22245;52.832;13.816;2023-02-13T02:18:50;5.00;;;2.73;;
17763;SDS011;22245;52.832;13.816;2023-02-13T02:26:20;4.70;;;2.77;;
17763;SDS011;22245;52.832;13.816;2023-02-13T02:34:11;3.83;;;2.53;;
17763;SDS011;22245;52.832;13.816;2023-02-13T02:37:45;4.40;;;2.70;;
17763;SDS011;22245;52.832;13.816;2023-02-13T02:41:20;4.00;;;2.53;;
17763;SDS011;22245;52.832;13.816;2023-02-13T02:45:10;3.73;;;2.27;;
17763;SDS011;22245;52.832;13.816;2023-02-13T02:48:42;4.27;;;2.40;;
17763;SDS011;22245;52.832;13.816;2023-02-13T02:52:37;3.73;;;2.30;;
17763;SDS011;22245;52.832;13.816;2023-02-13T02:56:06;5.57;;;2.80;;
17763;SDS011;22245;52.832;13.816;2023-02-13T02:59:34;4.50;;;2.47;;
17763;SDS011;22245;52.832;13.816;2023-02-13T03:03:16;4.50;;;2.17;;
17763;SDS011;22245;52.832;13.816;2023-02-13T03:06:56;5.03;;;2.17;;
17763;SDS011;22245;52.832;13.816;2023-02-13T03:10:24;3.83;;;2.30;;
17763;SDS011;22245;52.832;13.816;2023-02-13T03:14:06;4.40;;;2.50;;
17763;SDS011;22245;52.832;13.816;2023-02-13T03:17:30;4.27;;;2.37;;
17763;SDS011;22245;52.832;13.816;2023-02-13T03:21:12;4.73;;;2.83;;
17763;SDS011;22245;52.832;13.816;2023-02-13T03:24:57;4.33;;;2.50;;
17763;SDS011;22245;52.832;13.816;2023-02-13T03:28:27;4.50;;;2.60;;
17763;SDS011;22245;52.832;13.816;2023-02-13T03:32:16;3.60;;;2.40;;
17763;SDS011;22245;52.832;13.816;2023-02-13T03:35:46;4.27;;;2.70;;
17763;SDS011;22245;52.832;13.816;2023-02-13T03:39:32;4.27;;;2.67;;
17763;SDS011;22245;52.832;13.816;2023-02-13T03:43:03;5.10;;;2.63;;
17763;SDS011;22245;52.832;13.816;2023-02-13T03:46:33;6.43;;;3.23;;
17763;SDS011;22245;52.832;13.816;2023-02-13T03:49:57;5.77;;;3.07;;
17763;SDS011;22245;52.832;13.816;2023-02-13T03:53:24;5.63;;;2.90;;
17763;SDS011;22245;52.832;13.816;2023-02-13T03:56:49;5.67;;;2.83;;
17763;SDS011;22245;52.832;13.816;2023-02-13T04:00:32;3.70;;;2.50;;
17763;SDS011;22245;52.832;13.816;2023-02-13T04:04:00;5.30;;;2.70;;
17763;SDS011;22245;52.832;13.816;2023-02-13T04:07:28;3.90;;;2.40;;
17763;SDS011;22245;52.832;13.816;2023-02-13T04:10:52;3.63;;;2.77;;
17763;SDS011;22245;52.832;13.816;2023-02-13T04:14:18;3.27;;;2.50;;
17763;SDS011;22245;52.832;13.816;2023-02-13T04:17:44;4.13;;;2.70;;
17763;SDS011;22245;52.832;13.816;2023-02-13T04:21:10;3.73;;;2.60;;
17763;SDS011;22245;52.832;13.816;2023-02-13T04:24:32;3.53;;;2.40;;
17763;SDS011;22245;52.832;13.816;2023-02-13T04:27:53;3.53;;;2.40;;
17763;SDS011;22245;52.832;13.816;2023-02-13T04:31:15;3.77;;;2.57;;
17763;SDS011;22245;52.832;13.816;2023-02-13T04:34:37;4.23;;;2.70;;
17763;SDS011;22245;52.832;13.816;2023-02-13T04:38:00;5.90;;;2.87;;
17763;SDS011;22245;52.832;13.816;2023-02-13T04:41:22;3.67;;;2.50;;
17763;SDS011;22245;52.832;13.816;2023-02-13T04:44:43;4.97;;;2.60;;
17763;SDS011;22245;52.832;13.816;2023-02-13T04:48:05;3.60;;;2.40;;
17763;SDS011;22245;52.832;13.816;2023-02-13T04:51:26;3.90;;;2.63;;
17763;SDS011;22245;52.832;13.816;2023-02-13T04:54:49;5.47;;;2.60;;
17763;SDS011;22245;52.832;13.816;2023-02-13T04:58:11;3.87;;;2.67;;
17763;SDS011;22245;52.832;13.816;2023-02-13T05:01:33;4.93;;;2.47;;
17763;SDS011;22245;52.832;13.816;2023-02-13T05:04:55;4.13;;;2.43;;
17763;SDS011;22245;52.832;13.816;2023-02-13T05:08:16;3.97;;;3.10;;
17763;SDS011;22245;52.832;13.816;2023-02-13T05:11:39;4.37;;;2.80;;
17763;SDS011;22245;52.832;13.816;2023-02-13T05:15:01;4.03;;;2.63;;
17763;SDS011;22245;52.832;13.816;2023-02-13T05:18:23;3.57;;;2.53;;
17763;SDS011;22245;52.832;13.816;2023-02-13T05:21:45;3.40;;;2.30;;
17763;SDS011;22245;52.832;13.816;2023-02-13T05:25:24;3.67;;;2.37;;
17763;SDS011;22245;52.832;13.816;2023-02-13T05:28:47;3.33;;;2.23;;
17763;SDS011;22245;52.832;13.816;2023-02-13T05:32:25;6.33;;;2.63;;
17763;SDS011;22245;52.832;13.816;2023-02-13T05:35:47;5.27;;;3.20;;
17763;SDS011;22245;52.832;13.816;2023-02-13T05:39:09;5.97;;;3.20;;
17763;SDS011;22245;52.832;13.816;2023-02-13T05:42:31;4.07;;;2.80;;
17763;SDS011;22245;52.832;13.816;2023-02-13T05:46:01;6.13;;;3.27;;
17763;SDS011;22245;52.832;13.816;2023-02-13T05:49:23;4.07;;;2.70;;
17763;SDS011;22245;52.832;13.816;2023-02-13T05:52:44;4.83;;;2.57;;
17763;SDS011;22245;52.832;13.816;2023-02-13T05:56:06;5.10;;;3.00;;
17763;SDS011;22245;52.832;13.816;2023-02-13T05:59:28;4.77;;;2.77;;
17763;SDS011;22245;52.832;13.816;2023-02-13T06:02:51;5.90;;;2.87;;
17763;SDS011;22245;52.832;13.816;2023-02-13T06:06:13;4.70;;;3.00;;
17763;SDS011;22245;52.832;13.816;2023-02-13T06:09:35;4.63;;;3.20;;
17763;SDS011;22245;52.832;13.816;2023-02-13T06:12:56;3.93;;;2.60;;
17763;SDS011;22245;52.832;13.816;2023-02-13T06:16:18;4.20;;;2.80;;
17763;SDS011;22245;52.832;13.816;2023-02-13T06:19:41;4.53;;;2.90;;
17763;SDS011;22245;52.832;13.816;2023-02-13T06:23:03;4.33;;;3.00;;
17763;SDS011;22245;52.832;13.816;2023-02-13T06:26:25;5.00;;;3.13;;
17763;SDS011;22245;52.832;13.816;2023-02-13T06:29:47;5.00;;;3.27;;
17763;SDS011;22245;52.832;13.816;2023-02-13T06:33:09;4.97;;;3.03;;
17763;SDS011;22245;52.832;13.816;2023-02-13T06:36:32;4.20;;;3.20;;
17763;SDS011;22245;52.832;13.816;2023-02-13T06:39:53;5.77;;;3.23;;
17763;SDS011;22245;52.832;13.816;2023-02-13T06:43:15;5.47;;;3.40;;
17763;SDS011;22245;52.832;13.816;2023-02-13T06:46:37;5.23;;;3.40;;
17763;SDS011;22245;52.832;13.816;2023-02-13T06:49:59;6.77;;;3.47;;
17763;SDS011;22245;52.832;13.816;2023-02-13T06:53:22;6.47;;;3.63;;
17763;SDS011;22245;52.832;13.816;2023-02-13T06:56:44;13.87;;;5.43;;
17763;SDS011;22245;52.832;13.816;2023-02-13T07:00:07;8.30;;;4.37;;
17763;SDS011;22245;52.832;13.816;2023-02-13T07:03:32;6.67;;;4.13;;
17763;SDS011;22245;52.832;13.816;2023-02-13T07:06:54;7.47;;;4.20;;
17763;SDS011;22245;52.832;13.816;2023-02-13T07:10:17;11.87;;;5.67;;
17763;SDS011;22245;52.832;13.816;2023-02-13T07:13:41;13.77;;;5.50;;
17763;SDS011;22245;52.832;13.816;2023-02-13T07:17:03;9.53;;;4.73;;
17763;SDS011;22245;52.832;13.816;2023-02-13T07:20:25;7.83;;;4.50;;
17763;SDS011;22245;52.832;13.816;2023-02-13T07:23:47;7.83;;;4.73;;
17763;SDS011;22245;52.832;13.816;2023-02-13T07:27:10;7.13;;;4.63;;
17763;SDS011;22245;52.832;13.816;2023-02-13T07:30:31;9.07;;;5.37;;
17763;SDS011;22245;52.832;13.816;2023-02-13T07:33:54;11.23;;;6.50;;
17763;SDS011;22245;52.832;13.816;2023-02-13T07:37:16;8.93;;;5.77;;
17763;SDS011;22245;52.832;13.816;2023-02-13T07:40:38;13.00;;;6.30;;
17763;SDS011;22245;52.832;13.816;2023-02-13T07:44:01;10.43;;;6.90;;
17763;SDS011;22245;52.832;13.816;2023-02-13T07:47:23;13.37;;;7.13;;
17763;SDS011;22245;52.832;13.816;2023-02-13T07:50:44;14.13;;;8.27;;
17763;SDS011;22245;52.832;13.816;2023-02-13T07:54:06;13.70;;;7.10;;
17763;SDS011;22245;52.832;13.816;2023-02-13T07:57:28;16.90;;;7.57;;
17763;SDS011;22245;52.832;13.816;2023-02-13T08:00:51;10.37;;;5.97;;
17763;SDS011;22245;52.832;13.816;2023-02-13T08:04:13;6.60;;;4.60;;
17763;SDS011;22245;52.832;13.816;2023-02-13T08:07:35;6.60;;;3.90;;
17763;SDS011;22245;52.832;13.816;2023-02-13T08:11:01;5.17;;;3.83;;
17763;SDS011;22245;52.832;13.816;2023-02-13T08:14:43;7.07;;;5.00;;
17763;SDS011;22245;52.832;13.816;2023-02-13T08:18:06;6.57;;;4.00;;
17763;SDS011;22245;52.832;13.816;2023-02-13T08:21:27;6.33;;;4.57;;
17763;SDS011;22245;52.832;13.816;2023-02-13T08:24:49;7.37;;;5.20;;
17763;SDS011;22245;52.832;13.816;2023-02-13T08:28:10;8.67;;;5.30;;
17763;SDS011;22245;52.832;13.816;2023-02-13T08:31:32;7.70;;;5.50;;
17763;SDS011;22245;52.832;13.816;2023-02-13T08:34:55;9.13;;;5.77;;
17763;SDS011;22245;52.832;13.816;2023-02-13T08:38:17;5.83;;;3.40;;
17763;SDS011;22245;52.832;13.816;2023-02-13T08:41:40;7.30;;;4.60;;
17763;SDS011;22245;52.832;13.816;2023-02-13T08:45:02;6.10;;;3.83;;
17763;SDS011;22245;52.832;13.816;2023-02-13T08:48:24;5.50;;;3.93;;
17763;SDS011;22245;52.832;13.816;2023-02-13T08:51:48;5.83;;;3.97;;
17763;SDS011;22245;52.832;13.816;2023-02-13T08:55:10;6.47;;;4.33;;
17763;SDS011;22245;52.832;13.816;2023-02-13T08:58:31;7.73;;;4.53;;
17763;SDS011;22245;52.832;13.816;2023-02-13T09:01:53;8.13;;;5.17;;
17763;SDS011;22245;52.832;13.816;2023-02-13T09:05:14;7.50;;;4.53;;
17763;SDS011;22245;52.832;13.816;2023-02-13T09:08:37;8.67;;;4.73;;
17763;SDS011;22245;52.832;13.816;2023-02-13T09:11:59;8.13;;;5.20;;
17763;SDS011;22245;52.832;13.816;2023-02-13T09:15:20;8.47;;;5.83;;
17763;SDS011;22245;52.832;13.816;2023-02-13T09:18:41;7.63;;;5.70;;
17763;SDS011;22245;52.832;13.816;2023-02-13T09:22:03;7.90;;;5.43;;
17763;SDS011;22245;52.832;13.816;2023-02-13T09:25:26;9.57;;;5.80;;
17763;SDS011;22245;52.832;13.816;2023-02-13T09:28:47;7.83;;;5.27;;
17763;SDS011;22245;52.832;13.816;2023-02-13T09:32:09;8.80;;;6.00;;
17763;SDS011;22245;52.832;13.816;2023-02-13T09:35:31;8.80;;;5.70;;
17763;SDS011;22245;52.832;13.816;2023-02-13T09:38:54;9.57;;;6.07;;
17763;SDS011;22245;52.832;13.816;2023-02-13T09:42:19;10.20;;;5.80;;
17763;SDS011;22245;52.832;13.816;2023-02-13T09:45:44;10.77;;;5.90;;
17763;SDS011;22245;52.832;13.816;2023-02-13T09:49:11;10.03;;;5.60;;
17763;SDS011;22245;52.832;13.816;2023-02-13T09:52:36;10.73;;;5.87;;
17763;SDS011;22245;52.832;13.816;2023-02-13T09:55:59;10.20;;;5.60;;
17763;SDS011;22245;52.832;13.816;2023-02-13T10:03:17;9.70;;;5.03;;
17763;SDS011;22245;52.832;13.816;2023-02-13T10:06:42;10.17;;;5.80;;
17763;SDS011;22245;52.832;13.816;2023-02-13T10:10:12;11.67;;;6.70;;
17763;SDS011;22245;52.832;13.816;2023-02-13T10:13:47;10.97;;;6.23;;
17763;SDS011;22245;52.832;13.816;2023-02-13T10:17:20;11.67;;;6.33;;
17763;SDS011;22245;52.832;13.816;2023-02-13T10:20:49;15.03;;;6.97;;
17763;SDS011;22245;52.832;13.816;2023-02-13T10:24:16;14.67;;;7.67;;
17763;SDS011;22245;52.832;13.816;2023-02-13T10:27:46;14.70;;;6.90;;
17763;SDS011;22245;52.832;13.816;2023-02-13T10:31:14;14.53;;;7.43;;
17763;SDS011;22245;52.832;13.816;2023-02-13T10:34:41;12.77;;;7.47;;
17763;SDS011;22245;52.832;13.816;2023-02-13T10:38:11;13.90;;;7.77;;
17763;SDS011;22245;52.832;13.816;2023-02-13T10:41:39;12.73;;;7.33;;
17763;SDS011;22245;52.832;13.816;2023-02-13T10:45:27;13.43;;;7.67;;
17763;SDS011;22245;52.832;13.816;2023-02-13T10:49:08;16.47;;;8.53;;
17763;SDS011;22245;52.832;13.816;2023-02-13T10:52:48;16.77;;;9.27;;
17763;SDS011;22245;52.832;13.816;2023-02-13T10:56:25;16.90;;;8.83;;
17763;SDS011;22245;52.832;13.816;2023-02-13T10:59:55;18.23;;;9.60;;
17763;SDS011;22245;52.832;13.816;2023-02-13T11:03:25;20.10;;;11.20;;
17763;SDS011;22245;52.832;13.816;2023-02-13T11:06:50;18.97;;;10.53;;
17763;SDS011;22245;52.832;13.816;2023-02-13T11:10:18;20.43;;;11.40;;
17763;SDS011;22245;52.832;13.816;2023-02-13T11:13:42;20.60;;;11.30;;
17763;SDS011;22245;52.832;13.816;2023-02-13T11:17:04;23.33;;;11.80;;
17763;SDS011;22245;52.832;13.816;2023-02-13T11:20:30;24.23;;;12.90;;
17763;SDS011;22245;52.832;13.816;2023-02-13T11:23:55;20.63;;;11.10;;
17763;SDS011;22245;52.832;13.816;2023-02-13T11:27:21;19.80;;;11.17;;
17763;SDS011;22245;52.832;13.816;2023-02-13T11:30:47;22.03;;;11.50;;
17763;SDS011;22245;52.832;13.816;2023-02-13T11:34:22;22.10;;;11.17;;
17763;SDS011;22245;52.832;13.816;2023-02-13T11:37:45;20.70;;;11.80;;
17763;SDS011;22245;52.832;13.816;2023-02-13T11:41:07;20.93;;;11.03;;
17763;SDS011;22245;52.832;13.816;2023-02-13T11:44:32;20.17;;;11.57;;
17763;SDS011;22245;52.832;13.816;2023-02-13T11:47:53;20.83;;;10.97;;
17763;SDS011;22245;52.832;13.816;2023-02-13T11:51:16;21.20;;;11.03;;
17763;SDS011;22245;52.832;13.816;2023-02-13T11:54:38;19.70;;;10.33;;
17763;SDS011;22245;52.832;13.816;2023-02-13T11:58:02;18.47;;;9.50;;
17763;SDS011;22245;52.832;13.816;2023-02-13T12:01:43;17.77;;;9.80;;
17763;SDS011;22245;52.832;13.816;2023-02-13T12:05:14;18.67;;;9.43;;
17763;SDS011;22245;52.832;13.816;2023-02-13T12:08:39;16.47;;;8.77;;
17763;SDS011;22245;52.832;13.816;2023-02-13T12:12:02;16.63;;;9.27;;
17763;SDS011;22245;52.832;13.816;2023-02-13T12:15:27;15.83;;;9.47;;
17763;SDS011;22245;52.832;13.816;2023-02-13T12:18:53;18.33;;;10.23;;
17763;SDS011;22245;52.832;13.816;2023-02-13T12:22:27;18.77;;;9.83;;
17763;SDS011;22245;52.832;13.816;2023-02-13T12:26:03;15.97;;;9.20;;
17763;SDS011;22245;52.832;13.816;2023-02-13T12:29:41;18.67;;;9.73;;
17763;SDS011;22245;52.832;13.816;2023-02-13T12:33:22;17.10;;;9.67;;
17763;SDS011;22245;52.832;13.816;2023-02-13T12:37:15;16.30;;;8.80;;
17763;SDS011;22245;52.832;13.816;2023-02-13T12:40:47;16.27;;;9.63;;
17763;SDS011;22245;52.832;13.816;2023-02-13T12:48:19;19.20;;;10.37;;
17763;SDS011;22245;52.832;13.816;2023-02-13T12:51:51;18.70;;;9.30;;
17763;SDS011;22245;52.832;13.816;2023-02-13T12:55:30;17.47;;;9.37;;
17763;SDS011;22245;52.832;13.816;2023-02-13T12:59:06;19.83;;;11.30;;
17763;SDS011;22245;52.832;13.816;2023-02-13T13:02:47;19.57;;;9.83;;
17763;SDS011;22245;52.832;13.816;2023-02-13T13:06:28;18.90;;;10.33;;
17763;SDS011;22245;52.832;13.816;2023-02-13T13:10:00;18.03;;;9.50;;
17763;SDS011;22245;52.832;13.816;2023-02-13T13:13:44;15.57;;;9.50;;
17763;SDS011;22245;52.832;13.816;2023-02-13T13:17:19;17.43;;;9.63;;
17763;SDS011;22245;52.832;13.816;2023-02-13T13:24:32;16.20;;;9.57;;
17763;SDS011;22245;52.832;13.816;2023-02-13T13:28:03;12.10;;;8.00;;
17763;SDS011;22245;52.832;13.816;2023-02-13T13:31:34;14.87;;;8.37;;
17763;SDS011;22245;52.832;13.816;2023-02-13T13:34:57;14.83;;;8.40;;
17763;SDS011;22245;52.832;13.816;2023-02-13T13:38:21;15.50;;;8.30;;
17763;SDS011;22245;52.832;13.816;2023-02-13T13:41:51;14.57;;;8.33;;
17763;SDS011;22245;52.832;13.816;2023-02-13T13:45:26;13.20;;;7.87;;
17763;SDS011;22245;52.832;13.816;2023-02-13T13:49:04;18.30;;;8.70;;
17763;SDS011;22245;52.832;13.816;2023-02-13T13:52:35;14.57;;;7.77;;
17763;SDS011;22245;52.832;13.816;2023-02-13T13:55:58;12.40;;;7.70;;
17763;SDS011;22245;52.832;13.816;2023-02-13T14:03:32;13.17;;;7.37;;
17763;SDS011;22245;52.832;13.816;2023-02-13T14:07:14;12.00;;;7.40;;
17763;SDS011;22245;52.832;13.816;2023-02-13T14:10:58;14.93;;;7.20;;
17763;SDS011;22245;52.832;13.816;2023-02-13T14:18:15;11.57;;;6.73;;
17763;SDS011;22245;52.832;13.816;2023-02-13T14:21:41;13.57;;;8.00;;
17763;SDS011;22245;52.832;13.816;2023-02-13T14:25:06;14.93;;;8.53;;
17763;SDS011;22245;52.832;13.816;2023-02-13T14:28:53;16.90;;;8.80;;
17763;SDS011;22245;52.832;13.816;2023-02-13T14:32:19;16.90;;;8.70;;
17763;SDS011;22245;52.832;13.816;2023-02-13T14:35:46;15.60;;;9.30;;
17763;SDS011;22245;52.832;13.816;2023-02-13T14:39:21;15.60;;;8.80;;
17763;SDS011;22245;52.832;13.816;2023-02-13T14:42:50;15.93;;;8.70;;
17763;SDS011;22245;52.832;13.816;2023-02-13T14:46:26;16.30;;;9.30;;
17763;SDS011;22245;52.832;13.816;2023-02-13T14:49:54;13.37;;;8.43;;
17763;SDS011;22245;52.832;13.816;2023-02-13T14:53:20;13.50;;;8.50;;
17763;SDS011;22245;52.832;13.816;2023-02-13T14:56:45;14.37;;;8.20;;
17763;SDS011;22245;52.832;13.816;2023-02-13T15:00:15;15.53;;;7.90;;
17763;SDS011;22245;52.832;13.816;2023-02-13T15:03:45;16.90;;;9.07;;
17763;SDS011;22245;52.832;13.816;2023-02-13T15:07:12;20.30;;;11.27;;
17763;SDS011;22245;52.832;13.816;2023-02-13T15:10:39;21.40;;;10.67;;
17763;SDS011;22245;52.832;13.816;2023-02-13T15:14:19;15.63;;;9.43;;
17763;SDS011;22245;52.832;13.816;2023-02-13T15:17:47;16.47;;;10.23;;
17763;SDS011;22245;52.832;13.816;2023-02-13T15:21:08;16.30;;;9.00;;
17763;SDS011;22245;52.832;13.816;2023-02-13T15:24:36;16.23;;;9.83;;
17763;SDS011;22245;52.832;13.816;2023-02-13T15:28:06;13.77;;;8.20;;
17763;SDS011;22245;52.832;13.816;2023-02-13T15:31:37;15.50;;;9.00;;
17763;SDS011;22245;52.832;13.816;2023-02-13T15:35:00;14.87;;;8.97;;
17763;SDS011;22245;52.832;13.816;2023-02-13T15:38:27;15.97;;;9.43;;
17763;SDS011;22245;52.832;13.816;2023-02-13T15:41:50;14.97;;;8.73;;
17763;SDS011;22245;52.832;13.816;2023-02-13T15:45:14;13.73;;;8.33;;
17763;SDS011;22245;52.832;13.816;2023-02-13T15:48:37;16.80;;;9.50;;
17763;SDS011;22245;52.832;13.816;2023-02-13T15:52:04;17.23;;;9.23;;
17763;SDS011;22245;52.832;13.816;2023-02-13T15:55:29;13.97;;;8.17;;
17763;SDS011;22245;52.832;13.816;2023-02-13T15:58:53;16.23;;;9.60;;
17763;SDS011;22245;52.832;13.816;2023-02-13T16:02:17;17.37;;;8.47;;
17763;SDS011;22245;52.832;13.816;2023-02-13T16:05:41;16.67;;;9.23;;
17763;SDS011;22245;52.832;13.816;2023-02-13T16:09:20;17.63;;;9.60;;
17763;SDS011;22245;52.832;13.816;2023-02-13T16:12:44;20.10;;;10.07;;
17763;SDS011;22245;52.832;13.816;2023-02-13T16:16:08;19.33;;;10.07;;
17763;SDS011;22245;52.832;13.816;2023-02-13T16:19:35;18.47;;;9.63;;
17763;SDS011;22245;52.832;13.816;2023-02-13T16:23:02;17.10;;;9.47;;
17763;SDS011;22245;52.832;13.816;2023-02-13T16:26:29;16.67;;;10.20;;
17763;SDS011;22245;52.832;13.816;2023-02-13T16:29:53;18.47;;;9.63;;
17763;SDS011;22245;52.832;13.816;2023-02-13T16:33:21;20.90;;;11.17;;
17763;SDS011;22245;52.832;13.816;2023-02-13T16:36:44;19.47;;;10.90;;
17763;SDS011;22245;52.832;13.816;2023-02-13T16:40:30;17.63;;;9.63;;
17763;SDS011;22245;52.832;13.816;2023-02-13T16:43:55;20.00;;;10.70;;
17763;SDS011;22245;52.832;13.816;2023-02-13T16:47:20;18.03;;;9.93;;
17763;SDS011;22245;52.832;13.816;2023-02-13T16:50:43;17.37;;;9.53;;
17763;SDS011;22245;52.832;13.816;2023-02-13T16:54:13;20.53;;;10.37;;
17763;SDS011;22245;52.832;13.816;2023-02-13T16:57:50;20.03;;;11.03;;
17763;SDS011;22245;52.832;13.816;2023-02-13T17:01:21;15.97;;;9.77;;
17763;SDS011;22245;52.832;13.816;2023-02-13T17:04:43;17.20;;;9.63;;
17763;SDS011;22245;52.832;13.816;2023-02-13T17:08:07;16.90;;;9.60;;
17763;SDS011;22245;52.832;13.816;2023-02-13T17:11:29;16.47;;;9.33;;
17763;SDS011;22245;52.832;13.816;2023-02-13T17:14:51;16.70;;;10.05;;
17763;SDS011;22245;52.832;13.816;2023-02-13T17:18:14;16.50;;;9.37;;
17763;SDS011;22245;52.832;13.816;2023-02-13T17:21:36;16.80;;;9.93;;
17763;SDS011;22245;52.832;13.816;2023-02-13T17:24:59;15.80;;;9.77;;
17763;SDS011;22245;52.832;13.816;2023-02-13T17:28:23;18.80;;;9.67;;
17763;SDS011;22245;52.832;13.816;2023-02-13T17:31:47;17.67;;;9.70;;
17763;SDS011;22245;52.832;13.816;2023-02-13T17:35:14;15.73;;;9.30;;
17763;SDS011;22245;52.832;13.816;2023-02-13T17:38:36;15.83;;;9.33;;
17763;SDS011;22245;52.832;13.816;2023-02-13T17:41:58;18.63;;;9.93;;
17763;SDS011;22245;52.832;13.816;2023-02-13T17:45:20;17.20;;;9.87;;
17763;SDS011;22245;52.832;13.816;2023-02-13T17:48:44;18.00;;;10.23;;
17763;SDS011;22245;52.832;13.816;2023-02-13T17:52:08;19.80;;;10.33;;
17763;SDS011;22245;52.832;13.816;2023-02-13T17:55:34;15.87;;;9.70;;
17763;SDS011;22245;52.832;13.816;2023-02-13T17:58:56;18.70;;;10.63;;
17763;SDS011;22245;52.832;13.816;2023-02-13T18:02:18;16.33;;;9.53;;
17763;SDS011;22245;52.832;13.816;2023-02-13T18:05:40;17.70;;;10.33;;
17763;SDS011;22245;52.832;13.816;2023-02-13T18:09:04;18.57;;;11.00;;
17763;SDS011;22245;52.832;13.816;2023-02-13T18:12:25;18.30;;;9.40;;
17763;SDS011;22245;52.832;13.816;2023-02-13T18:15:48;16.43;;;9.77;;
17763;SDS011;22245;52.832;13.816;2023-02-13T18:19:10;19.83;;;10.03;;
17763;SDS011;22245;52.832;13.816;2023-02-13T18:22:33;19.80;;;10.63;;
17763;SDS011;22245;52.832;13.816;2023-02-13T18:26:03;20.40;;;11.10;;
17763;SDS011;22245;52.832;13.816;2023-02-13T18:29:26;19.27;;;10.73;;
17763;SDS011;22245;52.832;13.816;2023-02-13T18:32:49;19.53;;;11.20;;
17763;SDS011;22245;52.832;13.816;2023-02-13T18:36:12;16.63;;;10.00;;
17763;SDS011;22245;52.832;13.816;2023-02-13T18:39:34;18.57;;;9.47;;
17763;SDS011;22245;52.832;13.816;2023-02-13T18:42:57;15.80;;;9.20;;
17763;SDS011;22245;52.832;13.816;2023-02-13T18:46:20;15.37;;;8.60;;
17763;SDS011;22245;52.832;13.816;2023-02-13T18:49:43;16.67;;;10.03;;
17763;SDS011;22245;52.832;13.816;2023-02-13T18:53:05;17.33;;;9.90;;
17763;SDS011;22245;52.832;13.816;2023-02-13T18:56:27;18.17;;;9.73;;
17763;SDS011;22245;52.832;13.816;2023-02-13T18:59:50;14.20;;;8.60;;
17763;SDS011;22245;52.832;13.816;2023-02-13T19:03:12;18.97;;;9.87;;
17763;SDS011;22245;52.832;13.816;2023-02-13T19:06:33;19.43;;;9.20;;
17763;SDS011;22245;52.832;13.816;2023-02-13T19:09:55;16.27;;;9.40;;
17763;SDS011;22245;52.832;13.816;2023-02-13T19:13:17;18.30;;;10.23;;
17763;SDS011;22245;52.832;13.816;2023-02-13T19:16:40;17.67;;;10.77;;
17763;SDS011;22245;52.832;13.816;2023-02-13T19:20:02;17.77;;;9.60;;
17763;SDS011;22245;52.832;13.816;2023-02-13T19:23:25;17.60;;;9.73;;
17763;SDS011;22245;52.832;13.816;2023-02-13T19:26:46;16.37;;;9.67;;
17763;SDS011;22245;52.832;13.816;2023-02-13T19:30:08;19.43;;;10.30;;
17763;SDS011;22245;52.832;13.816;2023-02-13T19:33:32;16.57;;;9.43;;
17763;SDS011;22245;52.832;13.816;2023-02-13T19:36:54;18.47;;;10.20;;
17763;SDS011;22245;52.832;13.816;2023-02-13T19:40:16;20.43;;;10.73;;
17763;SDS011;22245;52.832;13.816;2023-02-13T19:43:38;24.83;;;10.97;;
17763;SDS011;22245;52.832;13.816;2023-02-13T19:47:00;21.63;;;11.03;;
17763;SDS011;22245;52.832;13.816;2023-02-13T19:50:23;20.80;;;11.53;;
17763;SDS011;22245;52.832;13.816;2023-02-13T19:53:45;20.37;;;11.50;;
17763;SDS011;22245;52.832;13.816;2023-02-13T19:57:07;19.50;;;10.47;;
17763;SDS011;22245;52.832;13.816;2023-02-13T20:00:28;16.10;;;9.63;;
17763;SDS011;22245;52.832;13.816;2023-02-13T20:03:50;17.77;;;8.97;;
17763;SDS011;22245;52.832;13.816;2023-02-13T20:07:14;16.50;;;9.67;;
17763;SDS011;22245;52.832;13.816;2023-02-13T20:10:36;19.07;;;9.07;;
17763;SDS011;22245;52.832;13.816;2023-02-13T20:13:58;13.77;;;7.83;;
17763;SDS011;22245;52.832;13.816;2023-02-13T20:17:21;15.37;;;8.53;;
17763;SDS011;22245;52.832;13.816;2023-02-13T20:20:42;14.93;;;8.70;;
17763;SDS011;22245;52.832;13.816;2023-02-13T20:24:06;18.40;;;9.60;;
17763;SDS011;22245;52.832;13.816;2023-02-13T20:27:28;17.93;;;9.37;;
17763;SDS011;22245;52.832;13.816;2023-02-13T20:30:50;18.30;;;9.50;;
17763;SDS011;22245;52.832;13.816;2023-02-13T20:34:12;15.70;;;9.13;;
17763;SDS011;22245;52.832;13.816;2023-02-13T20:37:34;17.40;;;9.33;;
17763;SDS011;22245;52.832;13.816;2023-02-13T20:40:57;18.20;;;10.13;;